Chapel Hill, North Carolina
Current Conditions -  °F | °C
As of 10:56 AM on Saturday 25 Oct 2014 (Local Time) from KIGX Reporting Station
Clear Clear  
Wind Chill: 61°   Ceiling: Unl
Heat Index: 61°   Visibility: 10mi
Dew Point: 39°   Wind: 6mph
Humidity: 44%   Direction: 40°NE
Pressure: 30.03"   Gusts: NA
Location:  35.91°N, 79.06°W
Report Text: KIGX 251456Z AUTO 04005KT 10SM CLR 16/04 A3003 RMK AO2 SLP167 T01610039 50003
Loading
Personal Weather Stations






























Interactive Weather Map
Tropical Storm Tracking
New forecast layout! Learn more

10-Day Weather Forecast

Advertisements
Track Severe Weather on mobile